sensor_id;sensor_type;location;lat;lon;timestamp;pressure;altitude;pressure_sealevel;temperature;humidity
60019;BME280;45870;42.528;26.740;2023-03-03T00:02:22;100041.84;;;13.70;44.97
60019;BME280;45870;42.528;26.740;2023-03-03T00:04:48;100029.31;;;14.19;43.44
60019;BME280;45870;42.528;26.740;2023-03-03T00:07:14;100024.97;;;14.34;43.19
60019;BME280;45870;42.528;26.740;2023-03-03T00:09:46;100023.09;;;14.01;44.01
60019;BME280;45870;42.528;26.740;2023-03-03T00:12:31;99936.06;;;13.36;44.14
60019;BME280;45870;42.528;26.740;2023-03-03T00:14:59;100023.91;;;14.02;43.73
60019;BME280;45870;42.528;26.740;2023-03-03T00:17:27;99963.00;;;13.93;43.52
60019;BME280;45870;42.528;26.740;2023-03-03T00:19:53;99964.47;;;13.84;43.74
60019;BME280;45870;42.528;26.740;2023-03-03T00:22:30;100003.03;;;13.36;45.68
60019;BME280;45870;42.528;26.740;2023-03-03T00:27:50;99998.94;;;14.22;43.46
60019;BME280;45870;42.528;26.740;2023-03-03T00:30:23;100000.88;;;14.05;43.48
60019;BME280;45870;42.528;26.740;2023-03-03T00:32:50;99982.56;;;14.33;43.03
60019;BME280;45870;42.528;26.740;2023-03-03T00:37:58;99980.28;;;13.54;44.86
60019;BME280;45870;42.528;26.740;2023-03-03T00:40:38;99987.25;;;13.33;45.80
60019;BME280;45870;42.528;26.740;2023-03-03T00:43:19;99982.75;;;13.72;44.67
60019;BME280;45870;42.528;26.740;2023-03-03T00:48:41;99978.03;;;13.84;44.45
60019;BME280;45870;42.528;26.740;2023-03-03T00:51:29;99986.44;;;13.82;44.14
60019;BME280;45870;42.528;26.740;2023-03-03T00:53:56;99981.94;;;13.71;44.26
60019;BME280;45870;42.528;26.740;2023-03-03T00:56:23;99967.53;;;13.71;44.41
60019;BME280;45870;42.528;26.740;2023-03-03T00:58:49;99965.56;;;13.05;46.14
60019;BME280;45870;42.528;26.740;2023-03-03T01:01:16;99968.91;;;12.95;46.93
60019;BME280;45870;42.528;26.740;2023-03-03T01:03:42;99953.28;;;13.14;46.34
60019;BME280;45870;42.528;26.740;2023-03-03T01:06:08;99952.66;;;12.67;47.12
60019;BME280;45870;42.528;26.740;2023-03-03T01:08:34;99928.56;;;13.10;45.65
60019;BME280;45870;42.528;26.740;2023-03-03T01:11:08;99952.06;;;12.93;46.22
60019;BME280;45870;42.528;26.740;2023-03-03T01:13:36;99947.63;;;12.59;47.45
60019;BME280;45870;42.528;26.740;2023-03-03T01:16:04;99945.47;;;12.72;46.61
60019;BME280;45870;42.528;26.740;2023-03-03T01:18:30;99937.88;;;13.02;46.14
60019;BME280;45870;42.528;26.740;2023-03-03T01:20:57;99941.47;;;13.20;45.48
60019;BME280;45870;42.528;26.740;2023-03-03T01:23:22;99738.50;;;11.67;46.05
60019;BME280;45870;42.528;26.740;2023-03-03T01:25:48;99941.00;;;12.66;46.53
60019;BME280;45870;42.528;26.740;2023-03-03T01:28:14;99938.13;;;13.29;45.34
60019;BME280;45870;42.528;26.740;2023-03-03T01:30:39;99939.19;;;13.28;45.32
60019;BME280;45870;42.528;26.740;2023-03-03T01:33:05;99917.50;;;12.83;46.18
60019;BME280;45870;42.528;26.740;2023-03-03T01:35:30;99937.84;;;13.14;45.76
60019;BME280;45870;42.528;26.740;2023-03-03T01:37:57;99930.44;;;13.10;45.73
60019;BME280;45870;42.528;26.740;2023-03-03T01:40:26;99940.91;;;13.34;45.43
60019;BME280;45870;42.528;26.740;2023-03-03T01:42:52;99940.88;;;12.73;47.06
60019;BME280;45870;42.528;26.740;2023-03-03T01:45:31;99927.59;;;12.88;46.47
60019;BME280;45870;42.528;26.740;2023-03-03T01:48:09;99919.41;;;12.99;46.39
60019;BME280;45870;42.528;26.740;2023-03-03T01:50:44;99934.28;;;12.29;49.10
60019;BME280;45870;42.528;26.740;2023-03-03T01:53:16;99859.97;;;12.20;47.89
60019;BME280;45870;42.528;26.740;2023-03-03T01:55:44;99936.94;;;12.80;46.66
60019;BME280;45870;42.528;26.740;2023-03-03T01:58:17;99935.16;;;12.86;46.85
60019;BME280;45870;42.528;26.740;2023-03-03T02:00:50;99933.50;;;12.57;47.53
60019;BME280;45870;42.528;26.740;2023-03-03T02:03:19;99914.47;;;12.51;47.88
60019;BME280;45870;42.528;26.740;2023-03-03T02:05:48;99898.69;;;12.20;48.25
60019;BME280;45870;42.528;26.740;2023-03-03T02:08:16;99762.34;;;11.81;47.08
60019;BME280;45870;42.528;26.740;2023-03-03T02:10:45;99935.50;;;12.61;48.05
60019;BME280;45870;42.528;26.740;2023-03-03T02:13:11;99922.75;;;12.90;47.23
60019;BME280;45870;42.528;26.740;2023-03-03T02:15:36;99930.53;;;13.48;45.24
60019;BME280;45870;42.528;26.740;2023-03-03T02:18:06;99926.09;;;13.59;45.25
60019;BME280;45870;42.528;26.740;2023-03-03T02:28:26;99923.81;;;12.32;48.33
60019;BME280;45870;42.528;26.740;2023-03-03T02:30:57;99929.53;;;12.47;48.03
60019;BME280;45870;42.528;26.740;2023-03-03T02:33:24;99932.63;;;12.39;47.56
60019;BME280;45870;42.528;26.740;2023-03-03T02:35:50;99928.31;;;12.27;48.68
60019;BME280;45870;42.528;26.740;2023-03-03T02:38:18;99938.53;;;13.21;46.34
60019;BME280;45870;42.528;26.740;2023-03-03T02:44:06;99934.50;;;13.57;44.92
60019;BME280;45870;42.528;26.740;2023-03-03T02:46:36;99914.94;;;13.55;44.49
60019;BME280;45870;42.528;26.740;2023-03-03T02:49:03;99785.28;;;12.80;44.70
60019;BME280;45870;42.528;26.740;2023-03-03T02:51:29;99928.00;;;13.25;45.40
60019;BME280;45870;42.528;26.740;2023-03-03T02:53:55;99846.06;;;12.73;45.56
60019;BME280;45870;42.528;26.740;2023-03-03T02:56:21;99922.91;;;13.28;45.44
60019;BME280;45870;42.528;26.740;2023-03-03T02:58:47;99923.31;;;13.70;44.59
60019;BME280;45870;42.528;26.740;2023-03-03T03:01:13;99921.84;;;12.28;47.76
60019;BME280;45870;42.528;26.740;2023-03-03T03:03:39;99909.13;;;12.85;46.73
60019;BME280;45870;42.528;26.740;2023-03-03T03:06:04;99913.41;;;12.01;49.11
60019;BME280;45870;42.528;26.740;2023-03-03T03:08:30;99909.44;;;12.88;46.26
60019;BME280;45870;42.528;26.740;2023-03-03T03:10:56;99924.28;;;12.69;47.10
60019;BME280;45870;42.528;26.740;2023-03-03T03:13:23;99920.47;;;12.42;48.61
60019;BME280;45870;42.528;26.740;2023-03-03T03:15:49;99918.56;;;12.82;47.60
60019;BME280;45870;42.528;26.740;2023-03-03T03:18:15;99887.25;;;12.58;47.64
60019;BME280;45870;42.528;26.740;2023-03-03T03:20:40;99910.56;;;12.08;48.62
60019;BME280;45870;42.528;26.740;2023-03-03T03:23:07;99909.56;;;12.93;46.80
60019;BME280;45870;42.528;26.740;2023-03-03T03:25:33;99913.13;;;13.61;45.29
60019;BME280;45870;42.528;26.740;2023-03-03T03:27:59;99913.66;;;13.79;44.75
60019;BME280;45870;42.528;26.740;2023-03-03T03:30:25;99915.38;;;13.47;45.13
60019;BME280;45870;42.528;26.740;2023-03-03T03:32:50;99905.00;;;12.82;46.82
60019;BME280;45870;42.528;26.740;2023-03-03T03:35:16;99909.78;;;12.35;47.82
60019;BME280;45870;42.528;26.740;2023-03-03T03:37:43;99911.13;;;13.06;46.47
60019;BME280;45870;42.528;26.740;2023-03-03T03:40:10;99909.69;;;13.87;44.36
60019;BME280;45870;42.528;26.740;2023-03-03T03:42:36;99914.28;;;14.03;44.17
60019;BME280;45870;42.528;26.740;2023-03-03T03:45:03;99911.94;;;13.73;44.82
60019;BME280;45870;42.528;26.740;2023-03-03T03:47:29;99912.69;;;13.85;44.34
60019;BME280;45870;42.528;26.740;2023-03-03T03:49:54;99840.91;;;13.76;43.60
60019;BME280;45870;42.528;26.740;2023-03-03T03:52:20;99908.00;;;14.41;43.25
60019;BME280;45870;42.528;26.740;2023-03-03T03:54:46;99907.91;;;14.58;42.72
60019;BME280;45870;42.528;26.740;2023-03-03T03:57:11;99909.88;;;14.19;43.52
60019;BME280;45870;42.528;26.740;2023-03-03T03:59:37;99917.75;;;14.64;42.73
60019;BME280;45870;42.528;26.740;2023-03-03T04:02:03;99910.91;;;14.56;42.63
60019;BME280;45870;42.528;26.740;2023-03-03T04:04:28;99913.97;;;14.65;42.54
60019;BME280;45870;42.528;26.740;2023-03-03T04:06:54;99913.69;;;14.39;43.00
60019;BME280;45870;42.528;26.740;2023-03-03T04:09:20;99919.91;;;14.18;43.56
60019;BME280;45870;42.528;26.740;2023-03-03T04:11:45;99919.13;;;14.01;43.99
60019;BME280;45870;42.528;26.740;2023-03-03T04:14:11;99925.28;;;14.13;43.76
60019;BME280;45870;42.528;26.740;2023-03-03T04:16:37;99913.13;;;14.37;43.20
60019;BME280;45870;42.528;26.740;2023-03-03T04:19:03;99921.03;;;14.39;43.19
60019;BME280;45870;42.528;26.740;2023-03-03T04:21:28;99915.66;;;14.06;43.94
60019;BME280;45870;42.528;26.740;2023-03-03T04:23:54;99910.09;;;14.34;43.46
60019;BME280;45870;42.528;26.740;2023-03-03T04:26:20;99898.22;;;14.40;42.99
60019;BME280;45870;42.528;26.740;2023-03-03T04:28:45;99899.41;;;14.27;43.17
60019;BME280;45870;42.528;26.740;2023-03-03T04:31:12;99897.72;;;13.83;44.17
60019;BME280;45870;42.528;26.740;2023-03-03T04:33:37;99906.78;;;13.72;44.95
60019;BME280;45870;42.528;26.740;2023-03-03T04:36:04;99902.09;;;14.06;43.87
60019;BME280;45870;42.528;26.740;2023-03-03T04:38:30;99912.31;;;13.98;44.09
60019;BME280;45870;42.528;26.740;2023-03-03T04:40:56;99902.91;;;14.06;44.03
60019;BME280;45870;42.528;26.740;2023-03-03T04:43:22;99903.06;;;14.16;43.97
60019;BME280;45870;42.528;26.740;2023-03-03T04:45:47;99904.56;;;14.50;42.92
60019;BME280;45870;42.528;26.740;2023-03-03T04:48:13;99901.94;;;14.56;42.72
60019;BME280;45870;42.528;26.740;2023-03-03T04:50:40;99893.97;;;14.27;43.31
60019;BME280;45870;42.528;26.740;2023-03-03T04:53:06;99892.63;;;14.08;43.90
60019;BME280;45870;42.528;26.740;2023-03-03T04:55:32;99900.59;;;13.93;44.15
60019;BME280;45870;42.528;26.740;2023-03-03T04:57:57;99827.50;;;13.48;44.50
60019;BME280;45870;42.528;26.740;2023-03-03T05:00:23;99900.88;;;14.18;43.98
60019;BME280;45870;42.528;26.740;2023-03-03T05:02:48;99904.56;;;14.29;43.47
60019;BME280;45870;42.528;26.740;2023-03-03T05:05:14;99903.91;;;14.38;43.34
60019;BME280;45870;42.528;26.740;2023-03-03T05:07:40;99909.91;;;14.40;43.35
60019;BME280;45870;42.528;26.740;2023-03-03T05:10:07;99905.97;;;14.53;42.80
60019;BME280;45870;42.528;26.740;2023-03-03T05:12:32;99911.59;;;14.46;43.24
60019;BME280;45870;42.528;26.740;2023-03-03T05:14:58;99913.34;;;14.58;43.14
60019;BME280;45870;42.528;26.740;2023-03-03T05:17:24;99905.69;;;14.76;42.56
60019;BME280;45870;42.528;26.740;2023-03-03T05:19:49;99892.44;;;14.85;42.41
60019;BME280;45870;42.528;26.740;2023-03-03T05:22:15;99903.31;;;14.85;42.92
60019;BME280;45870;42.528;26.740;2023-03-03T05:24:41;99905.78;;;14.86;42.41
60019;BME280;45870;42.528;26.740;2023-03-03T05:27:07;99914.59;;;14.72;42.74
60019;BME280;45870;42.528;26.740;2023-03-03T05:29:33;99909.78;;;15.06;42.27
60019;BME280;45870;42.528;26.740;2023-03-03T05:31:59;99901.75;;;15.21;42.32
60019;BME280;45870;42.528;26.740;2023-03-03T05:34:26;99886.16;;;15.11;41.98
60019;BME280;45870;42.528;26.740;2023-03-03T05:36:51;99871.22;;;15.09;42.12
60019;BME280;45870;42.528;26.740;2023-03-03T05:39:17;99900.31;;;15.13;42.25
60019;BME280;45870;42.528;26.740;2023-03-03T05:41:43;99832.81;;;14.46;42.10
60019;BME280;45870;42.528;26.740;2023-03-03T05:44:08;99890.88;;;14.40;43.04
60019;BME280;45870;42.528;26.740;2023-03-03T05:46:34;99909.78;;;14.52;43.06
60019;BME280;45870;42.528;26.740;2023-03-03T05:49:00;99901.31;;;15.02;42.30
60019;BME280;45870;42.528;26.740;2023-03-03T05:51:26;99898.94;;;15.42;41.21
60019;BME280;45870;42.528;26.740;2023-03-03T05:53:52;99903.00;;;15.40;41.21
60019;BME280;45870;42.528;26.740;2023-03-03T05:56:18;99899.44;;;14.76;42.45
60019;BME280;45870;42.528;26.740;2023-03-03T05:58:44;99890.03;;;14.18;44.40
60019;BME280;45870;42.528;26.740;2023-03-03T06:01:10;99782.53;;;13.30;44.94
60019;BME280;45870;42.528;26.740;2023-03-03T06:03:36;99897.38;;;14.18;45.04
60019;BME280;45870;42.528;26.740;2023-03-03T06:06:02;99894.22;;;13.49;45.65
60019;BME280;45870;42.528;26.740;2023-03-03T06:08:28;99895.31;;;13.65;45.40
60019;BME280;45870;42.528;26.740;2023-03-03T06:10:53;99820.53;;;13.52;45.74
60019;BME280;45870;42.528;26.740;2023-03-03T06:13:19;99889.44;;;12.89;47.42
60019;BME280;45870;42.528;26.740;2023-03-03T06:15:45;99897.34;;;14.34;44.93
60019;BME280;45870;42.528;26.740;2023-03-03T06:18:10;99874.41;;;14.74;43.09
60019;BME280;45870;42.528;26.740;2023-03-03T06:20:36;99892.31;;;13.66;45.55
60019;BME280;45870;42.528;26.740;2023-03-03T06:23:03;99876.75;;;13.40;46.39
60019;BME280;45870;42.528;26.740;2023-03-03T06:25:29;99892.97;;;14.55;44.98
60019;BME280;45870;42.528;26.740;2023-03-03T06:27:55;99891.69;;;15.53;42.53
60019;BME280;45870;42.528;26.740;2023-03-03T06:30:20;99890.97;;;14.72;43.79
60019;BME280;45870;42.528;26.740;2023-03-03T06:32:46;99893.25;;;15.12;42.54
60019;BME280;45870;42.528;26.740;2023-03-03T06:35:12;99890.09;;;15.25;42.56
60019;BME280;45870;42.528;26.740;2023-03-03T06:37:38;99890.75;;;14.79;44.25
60019;BME280;45870;42.528;26.740;2023-03-03T06:40:05;99899.09;;;14.99;43.97
60019;BME280;45870;42.528;26.740;2023-03-03T06:42:31;99897.00;;;15.75;42.46
60019;BME280;45870;42.528;26.740;2023-03-03T06:44:57;99903.00;;;15.08;42.57
60019;BME280;45870;42.528;26.740;2023-03-03T06:47:22;99904.13;;;14.85;43.54
60019;BME280;45870;42.528;26.740;2023-03-03T06:49:48;99909.25;;;15.40;42.92
60019;BME280;45870;42.528;26.740;2023-03-03T06:52:19;99896.59;;;14.92;43.91
60019;BME280;45870;42.528;26.740;2023-03-03T06:54:45;99906.28;;;14.83;43.88
60019;BME280;45870;42.528;26.740;2023-03-03T06:57:32;99910.03;;;15.73;41.91
60019;BME280;45870;42.528;26.740;2023-03-03T07:02:40;99901.56;;;15.00;43.41
60019;BME280;45870;42.528;26.740;2023-03-03T07:05:11;99907.78;;;14.96;43.10
60019;BME280;45870;42.528;26.740;2023-03-03T07:07:38;99899.09;;;14.99;43.31
60019;BME280;45870;42.528;26.740;2023-03-03T07:10:15;99902.50;;;14.84;44.29
60019;BME280;45870;42.528;26.740;2023-03-03T07:12:42;99862.94;;;13.41;46.39
60019;BME280;45870;42.528;26.740;2023-03-03T07:15:17;99899.44;;;14.32;44.95
60019;BME280;45870;42.528;26.740;2023-03-03T07:17:47;99897.47;;;14.44;43.51
60019;BME280;45870;42.528;26.740;2023-03-03T07:20:22;99890.44;;;15.02;42.79
60019;BME280;45870;42.528;26.740;2023-03-03T07:22:48;99898.19;;;14.62;44.04
60019;BME280;45870;42.528;26.740;2023-03-03T07:25:29;99861.84;;;15.26;42.68
60019;BME280;45870;42.528;26.740;2023-03-03T07:30:45;99807.69;;;13.86;43.18
60019;BME280;45870;42.528;26.740;2023-03-03T07:33:25;99907.16;;;15.16;41.93
60019;BME280;45870;42.528;26.740;2023-03-03T07:35:54;99908.56;;;14.43;42.92
60019;BME280;45870;42.528;26.740;2023-03-03T07:38:30;99908.97;;;14.57;42.36
60019;BME280;45870;42.528;26.740;2023-03-03T07:41:00;99907.91;;;15.11;41.98
60019;BME280;45870;42.528;26.740;2023-03-03T07:43:42;99876.66;;;14.55;42.26
60019;BME280;45870;42.528;26.740;2023-03-03T07:48:44;99907.69;;;14.86;42.45
60019;BME280;45870;42.528;26.740;2023-03-03T07:51:21;99907.03;;;14.74;42.32
60019;BME280;45870;42.528;26.740;2023-03-03T07:53:50;99908.16;;;15.10;41.11
60019;BME280;45870;42.528;26.740;2023-03-03T07:56:29;99901.47;;;14.90;42.48
60019;BME280;45870;42.528;26.740;2023-03-03T07:58:59;99894.75;;;14.44;43.45
60019;BME280;45870;42.528;26.740;2023-03-03T08:01:43;99891.16;;;15.56;40.26
60019;BME280;45870;42.528;26.740;2023-03-03T08:04:48;99879.38;;;15.45;40.91
60019;BME280;45870;42.528;26.740;2023-03-03T08:07:18;99895.44;;;16.36;38.30
60019;BME280;45870;42.528;26.740;2023-03-03T08:09:58;99813.66;;;14.10;41.71
60019;BME280;45870;42.528;26.740;2023-03-03T08:14:53;99877.09;;;15.00;41.08
60019;BME280;45870;42.528;26.740;2023-03-03T08:17:22;99874.50;;;14.84;40.58
60019;BME280;45870;42.528;26.740;2023-03-03T08:19:50;99871.25;;;15.92;38.47
60019;BME280;45870;42.528;26.740;2023-03-03T08:25:04;99862.91;;;14.40;41.20
60019;BME280;45870;42.528;26.740;2023-03-03T08:27:29;99872.84;;;15.46;39.91
60019;BME280;45870;42.528;26.740;2023-03-03T08:29:55;99865.47;;;15.05;39.70
60019;BME280;45870;42.528;26.740;2023-03-03T08:32:21;99854.69;;;17.02;36.50
60019;BME280;45870;42.528;26.740;2023-03-03T08:34:47;99858.50;;;17.26;35.72
60019;BME280;45870;42.528;26.740;2023-03-03T08:37:12;99863.19;;;15.29;39.51
60019;BME280;45870;42.528;26.740;2023-03-03T08:39:38;99857.72;;;16.08;37.78
60019;BME280;45870;42.528;26.740;2023-03-03T08:42:04;99869.09;;;15.16;39.07
60019;BME280;45870;42.528;26.740;2023-03-03T08:44:29;99859.59;;;16.02;38.59
60019;BME280;45870;42.528;26.740;2023-03-03T08:46:55;99863.03;;;16.55;37.13
60019;BME280;45870;42.528;26.740;2023-03-03T08:49:21;99847.03;;;17.39;35.75
60019;BME280;45870;42.528;26.740;2023-03-03T08:51:47;99860.78;;;16.21;37.60
60019;BME280;45870;42.528;26.740;2023-03-03T08:54:12;99807.97;;;15.23;38.36
60019;BME280;45870;42.528;26.740;2023-03-03T08:56:38;99861.31;;;15.66;38.58
60019;BME280;45870;42.528;26.740;2023-03-03T08:59:04;99853.81;;;15.46;38.78
60019;BME280;45870;42.528;26.740;2023-03-03T09:01:31;99855.47;;;16.57;36.96
60019;BME280;45870;42.528;26.740;2023-03-03T09:03:58;99844.44;;;18.08;33.36
60019;BME280;45870;42.528;26.740;2023-03-03T09:06:24;99850.91;;;15.21;38.69
60019;BME280;45870;42.528;26.740;2023-03-03T09:08:49;99855.03;;;15.29;37.99
60019;BME280;45870;42.528;26.740;2023-03-03T09:11:23;99858.34;;;16.25;36.48
60019;BME280;45870;42.528;26.740;2023-03-03T09:13:49;99853.88;;;15.52;38.33
60019;BME280;45870;42.528;26.740;2023-03-03T09:16:17;99825.19;;;16.58;36.99
60019;BME280;45870;42.528;26.740;2023-03-03T09:18:45;99831.25;;;16.80;35.61
60019;BME280;45870;42.528;26.740;2023-03-03T09:21:24;99849.09;;;15.69;37.53
60019;BME280;45870;42.528;26.740;2023-03-03T09:23:55;99823.19;;;15.24;38.85
60019;BME280;45870;42.528;26.740;2023-03-03T09:28:47;99850.84;;;15.95;35.94
60019;BME280;45870;42.528;26.740;2023-03-03T09:33:53;99832.72;;;16.26;36.11
60019;BME280;45870;42.528;26.740;2023-03-03T09:36:27;99846.75;;;15.97;36.53
60019;BME280;45870;42.528;26.740;2023-03-03T09:38:57;99773.69;;;16.62;35.19
60019;BME280;45870;42.528;26.740;2023-03-03T09:41:48;99839.69;;;17.34;34.96
60019;BME280;45870;42.528;26.740;2023-03-03T09:50:25;99834.44;;;15.80;37.72
60019;BME280;45870;42.528;26.740;2023-03-03T09:58:39;99813.03;;;15.93;36.53
60019;BME280;45870;42.528;26.740;2023-03-03T10:10:10;99572.84;;;14.79;36.41
60019;BME280;45870;42.528;26.740;2023-03-03T10:12:53;99800.47;;;15.92;35.96
60019;BME280;45870;42.528;26.740;2023-03-03T10:15:51;99658.72;;;15.32;36.60
60019;BME280;45870;42.528;26.740;2023-03-03T10:21:47;99785.41;;;15.70;37.92
60019;BME280;45870;42.528;26.740;2023-03-03T10:24:28;99770.91;;;16.36;36.10
60019;BME280;45870;42.528;26.740;2023-03-03T10:32:23;99778.91;;;16.83;36.07
60019;BME280;45870;42.528;26.740;2023-03-03T10:35:31;99775.28;;;16.47;35.53
60019;BME280;45870;42.528;26.740;2023-03-03T10:44:06;99752.94;;;17.26;34.85
60019;BME280;45870;42.528;26.740;2023-03-03T10:46:51;99753.81;;;17.96;32.54
60019;BME280;45870;42.528;26.740;2023-03-03T10:49:38;99761.38;;;18.09;31.93
60019;BME280;45870;42.528;26.740;2023-03-03T11:00:02;99730.63;;;17.04;34.00
60019;BME280;45870;42.528;26.740;2023-03-03T11:08:38;99720.22;;;17.26;33.83
60019;BME280;45870;42.528;26.740;2023-03-03T11:11:31;99707.72;;;16.24;35.45
60019;BME280;45870;42.528;26.740;2023-03-03T11:14:21;99723.84;;;15.59;35.62
60019;BME280;45870;42.528;26.740;2023-03-03T11:25:20;99716.75;;;16.95;33.22
60019;BME280;45870;42.528;26.740;2023-03-03T11:28:11;99718.34;;;19.26;29.18
60019;BME280;45870;42.528;26.740;2023-03-03T11:31:01;99716.63;;;17.41;32.34
60019;BME280;45870;42.528;26.740;2023-03-03T11:36:27;99706.66;;;16.86;34.22
60019;BME280;45870;42.528;26.740;2023-03-03T11:38:56;99705.94;;;17.55;32.59
60019;BME280;45870;42.528;26.740;2023-03-03T11:44:18;99708.47;;;18.39;32.71
60019;BME280;45870;42.528;26.740;2023-03-03T11:47:26;99713.13;;;18.38;34.38
60019;BME280;45870;42.528;26.740;2023-03-03T11:50:01;99727.44;;;18.64;34.54
60019;BME280;45870;42.528;26.740;2023-03-03T11:52:46;99719.47;;;18.96;34.60
60019;BME280;45870;42.528;26.740;2023-03-03T11:55:32;99709.06;;;18.99;34.86
60019;BME280;45870;42.528;26.740;2023-03-03T11:58:19;99707.31;;;18.45;36.30
60019;BME280;45870;42.528;26.740;2023-03-03T12:00:55;99641.31;;;17.45;37.06
60019;BME280;45870;42.528;26.740;2023-03-03T12:03:38;99697.03;;;17.24;39.01
60019;BME280;45870;42.528;26.740;2023-03-03T12:06:32;99696.97;;;17.44;36.39
60019;BME280;45870;42.528;26.740;2023-03-03T12:09:10;99694.41;;;18.61;35.79
60019;BME280;45870;42.528;26.740;2023-03-03T12:12:14;99704.66;;;19.03;35.52
60019;BME280;45870;42.528;26.740;2023-03-03T12:26:08;99627.78;;;19.28;34.90
60019;BME280;45870;42.528;26.740;2023-03-03T12:28:42;99698.00;;;19.37;35.20
60019;BME280;45870;42.528;26.740;2023-03-03T12:31:36;99702.16;;;19.59;33.35
60019;BME280;45870;42.528;26.740;2023-03-03T12:42:30;99695.00;;;20.00;32.33
60019;BME280;45870;42.528;26.740;2023-03-03T12:45:22;99704.56;;;19.84;32.40
60019;BME280;45870;42.528;26.740;2023-03-03T12:48:15;99694.13;;;20.05;30.61
60019;BME280;45870;42.528;26.740;2023-03-03T12:55:56;99691.94;;;19.40;31.33
60019;BME280;45870;42.528;26.740;2023-03-03T12:58:54;99684.72;;;19.73;31.53
60019;BME280;45870;42.528;26.740;2023-03-03T13:01:44;99641.03;;;19.82;30.79
60019;BME280;45870;42.528;26.740;2023-03-03T13:07:14;99682.66;;;19.84;30.02
60019;BME280;45870;42.528;26.740;2023-03-03T13:09:58;99681.31;;;20.00;30.91
60019;BME280;45870;42.528;26.740;2023-03-03T13:17:37;99691.00;;;19.50;30.03
60019;BME280;45870;42.528;26.740;2023-03-03T13:23:06;99694.44;;;19.37;31.06
60019;BME280;45870;42.528;26.740;2023-03-03T13:28:16;99681.97;;;19.26;31.75
60019;BME280;45870;42.528;26.740;2023-03-03T13:30:47;99688.88;;;19.18;31.94
60019;BME280;45870;42.528;26.740;2023-03-03T13:33:34;99686.72;;;17.06;33.23
60019;BME280;45870;42.528;26.740;2023-03-03T13:36:06;99686.78;;;18.19;33.59
60019;BME280;45870;42.528;26.740;2023-03-03T13:38:42;99670.09;;;16.97;34.29
60019;BME280;45870;42.528;26.740;2023-03-03T13:46:39;99689.09;;;18.98;31.71
60019;BME280;45870;42.528;26.740;2023-03-03T13:49:19;99685.09;;;19.14;31.17
60019;BME280;45870;42.528;26.740;2023-03-03T13:52:22;99688.25;;;18.74;31.52
60019;BME280;45870;42.528;26.740;2023-03-03T13:57:43;99688.03;;;19.23;30.85
60019;BME280;45870;42.528;26.740;2023-03-03T14:03:21;99675.84;;;18.19;32.81
60019;BME280;45870;42.528;26.740;2023-03-03T14:05:56;99676.13;;;19.09;31.73
60019;BME280;45870;42.528;26.740;2023-03-03T14:09:04;99676.81;;;19.24;31.09
60019;BME280;45870;42.528;26.740;2023-03-03T14:11:45;99503.38;;;18.78;30.67
60019;BME280;45870;42.528;26.740;2023-03-03T14:19:25;99679.91;;;16.02;37.36
60019;BME280;45870;42.528;26.740;2023-03-03T14:22:14;99680.00;;;12.89;46.71
60019;BME280;45870;42.528;26.740;2023-03-03T14:25:08;99673.34;;;13.57;46.62
60019;BME280;45870;42.528;26.740;2023-03-03T14:30:30;99668.44;;;13.32;47.58
60019;BME280;45870;42.528;26.740;2023-03-03T14:35:34;99668.81;;;13.40;47.20
60019;BME280;45870;42.528;26.740;2023-03-03T14:38:13;99662.59;;;12.46;49.22
60019;BME280;45870;42.528;26.740;2023-03-03T14:40:41;99666.47;;;13.76;46.09
60019;BME280;45870;42.528;26.740;2023-03-03T14:43:23;99667.06;;;11.91;52.61
60019;BME280;45870;42.528;26.740;2023-03-03T14:45:51;99672.13;;;11.87;53.55
60019;BME280;45870;42.528;26.740;2023-03-03T14:48:25;99660.38;;;13.15;51.41
60019;BME280;45870;42.528;26.740;2023-03-03T14:50:59;99669.56;;;13.36;49.66
60019;BME280;45870;42.528;26.740;2023-03-03T14:53:44;99666.59;;;12.11;53.76
60019;BME280;45870;42.528;26.740;2023-03-03T14:56:27;99656.63;;;13.65;49.33
60019;BME280;45870;42.528;26.740;2023-03-03T15:01:43;99662.41;;;12.53;51.82
60019;BME280;45870;42.528;26.740;2023-03-03T15:04:26;99648.44;;;13.16;50.71
60019;BME280;45870;42.528;26.740;2023-03-03T15:06:53;99655.44;;;14.09;47.53
60019;BME280;45870;42.528;26.740;2023-03-03T15:09:31;99649.25;;;14.19;46.79
60019;BME280;45870;42.528;26.740;2023-03-03T15:12:37;99651.97;;;14.19;46.52
60019;BME280;45870;42.528;26.740;2023-03-03T15:22:51;99662.09;;;14.60;44.61
60019;BME280;45870;42.528;26.740;2023-03-03T15:25:29;99673.09;;;14.38;45.34
60019;BME280;45870;42.528;26.740;2023-03-03T15:33:37;99671.09;;;15.60;43.49
60019;BME280;45870;42.528;26.740;2023-03-03T15:36:43;99669.84;;;16.33;41.44
60019;BME280;45870;42.528;26.740;2023-03-03T15:42:32;99675.44;;;15.61;42.88
60019;BME280;45870;42.528;26.740;2023-03-03T15:54:18;99689.69;;;15.98;41.30
60019;BME280;45870;42.528;26.740;2023-03-03T15:56:55;99689.59;;;15.58;42.44
60019;BME280;45870;42.528;26.740;2023-03-03T15:59:58;99678.31;;;16.31;41.03
60019;BME280;45870;42.528;26.740;2023-03-03T16:02:41;99679.41;;;16.66;40.18
60019;BME280;45870;42.528;26.740;2023-03-03T16:27:15;99710.38;;;17.30;39.03
60019;BME280;45870;42.528;26.740;2023-03-03T16:30:22;99703.63;;;17.03;39.43
60019;BME280;45870;42.528;26.740;2023-03-03T16:33:08;99713.44;;;17.04;39.71
60019;BME280;45870;42.528;26.740;2023-03-03T16:35:41;99717.50;;;17.16;39.79
60019;BME280;45870;42.528;26.740;2023-03-03T16:38:12;99723.56;;;16.78;40.68
60019;BME280;45870;42.528;26.740;2023-03-03T16:40:55;99659.81;;;15.36;42.10
60019;BME280;45870;42.528;26.740;2023-03-03T16:49:22;99730.06;;;16.52;41.23
60019;BME280;45870;42.528;26.740;2023-03-03T16:51:58;99741.47;;;15.46;44.27
60019;BME280;45870;42.528;26.740;2023-03-03T16:54:38;99744.53;;;14.76;45.72